createdAt,value
2018-12-08T00:02:03.060Z,8.50
2018-12-08T00:04:30.932Z,8.50
2018-12-08T00:06:58.846Z,8.40
2018-12-08T00:09:31.682Z,8.40
2018-12-08T00:11:59.232Z,8.40
2018-12-08T00:14:27.708Z,8.30
2018-12-08T00:16:56.250Z,8.30
2018-12-08T00:19:24.492Z,8.30
2018-12-08T00:21:52.024Z,8.30
2018-12-08T00:24:20.204Z,8.20
2018-12-08T00:26:47.760Z,8.20
2018-12-08T00:29:17.905Z,8.10
2018-12-08T00:31:46.701Z,8.10
2018-12-08T00:34:16.627Z,8.10
2018-12-08T00:36:44.149Z,8.10
2018-12-08T00:39:11.723Z,8.10
2018-12-08T00:41:39.268Z,8.10
2018-12-08T00:44:06.789Z,8.10
2018-12-08T00:46:34.513Z,8.00
2018-12-08T00:49:02.016Z,8.00
2018-12-08T00:51:29.617Z,8.00
2018-12-08T00:53:59.109Z,8.00
2018-12-08T00:56:26.622Z,8.00
2018-12-08T00:58:54.257Z,8.00
2018-12-08T01:01:22.906Z,8.00
2018-12-08T01:03:50.747Z,8.00
2018-12-08T01:06:18.305Z,8.00
2018-12-08T01:08:45.835Z,7.90
2018-12-08T01:11:14.259Z,7.80
2018-12-08T01:13:41.771Z,7.80
2018-12-08T01:16:09.272Z,7.80
2018-12-08T01:18:36.875Z,7.70
2018-12-08T01:21:04.379Z,7.70
2018-12-08T01:23:31.905Z,7.70
2018-12-08T01:26:00.063Z,7.70
2018-12-08T01:28:27.585Z,7.70
2018-12-08T01:30:56.116Z,7.60
2018-12-08T01:33:25.078Z,7.60
2018-12-08T01:35:52.599Z,7.60
2018-12-08T01:38:20.122Z,7.50
2018-12-08T01:40:48.232Z,7.50
2018-12-08T01:43:15.763Z,7.40
2018-12-08T01:45:43.307Z,7.40
2018-12-08T01:48:11.147Z,7.40
2018-12-08T01:50:38.655Z,7.40
2018-12-08T01:53:06.182Z,7.40
2018-12-08T01:55:33.797Z,7.40
2018-12-08T01:58:01.602Z,7.40
2018-12-08T02:00:29.165Z,7.40
2018-12-08T02:02:56.674Z,7.30
2018-12-08T02:05:24.202Z,7.30
2018-12-08T02:07:52.198Z,7.30
2018-12-08T02:10:19.712Z,7.30
2018-12-08T02:12:48.062Z,7.30
2018-12-08T02:15:16.936Z,7.30
2018-12-08T02:17:44.453Z,7.30
2018-12-08T02:20:11.977Z,7.30
2018-12-08T02:22:39.481Z,7.30
2018-12-08T02:25:07.017Z,7.30
2018-12-08T02:27:34.543Z,7.30
2018-12-08T02:30:02.416Z,7.30
2018-12-08T02:32:29.959Z,7.30
2018-12-08T02:34:57.466Z,7.20
2018-12-08T02:37:24.968Z,7.20
2018-12-08T02:39:52.705Z,7.20
2018-12-08T02:42:20.205Z,7.20
2018-12-08T02:44:48.518Z,7.10
2018-12-08T02:47:16.532Z,7.00
2018-12-08T02:49:44.120Z,7.00
2018-12-08T02:52:11.714Z,7.00
2018-12-08T02:54:39.216Z,6.90
2018-12-08T02:57:11.196Z,6.80
2018-12-08T02:59:38.825Z,6.70
2018-12-08T03:02:06.327Z,6.80
2018-12-08T03:04:33.867Z,6.70
2018-12-08T03:07:01.377Z,6.70
2018-12-08T03:09:29.795Z,6.70
2018-12-08T03:11:57.512Z,6.70
2018-12-08T03:14:25.021Z,6.70
2018-12-08T03:16:54.581Z,6.80
2018-12-08T03:19:22.142Z,6.80
2018-12-08T03:21:52.247Z,6.70
2018-12-08T03:24:19.777Z,6.70
2018-12-08T03:26:47.290Z,6.70
2018-12-08T03:29:14.806Z,6.70
2018-12-08T03:31:42.313Z,6.70
2018-12-08T03:34:10.813Z,6.70
2018-12-08T03:36:38.648Z,6.70
2018-12-08T03:39:07.385Z,6.70
2018-12-08T03:41:36.057Z,6.70
2018-12-08T03:44:03.740Z,6.70
2018-12-08T03:46:32.438Z,6.70
2018-12-08T03:48:59.971Z,6.70
2018-12-08T03:51:27.475Z,6.80
2018-12-08T03:53:55.597Z,6.80
2018-12-08T03:56:24.131Z,6.80
2018-12-08T03:58:51.661Z,6.80
2018-12-08T04:01:19.185Z,6.80
2018-12-08T04:03:48.722Z,6.80
2018-12-08T04:06:16.286Z,6.80
2018-12-08T04:08:43.788Z,6.90
2018-12-08T04:11:11.314Z,6.90
2018-12-08T04:13:38.864Z,6.90
2018-12-08T04:16:06.380Z,6.90
2018-12-08T04:18:33.915Z,6.90
2018-12-08T04:21:02.054Z,6.90
2018-12-08T04:23:29.608Z,6.90
2018-12-08T04:25:57.567Z,6.90
2018-12-08T04:28:25.606Z,6.80
2018-12-08T04:30:56.809Z,6.80
2018-12-08T04:33:24.316Z,6.90
2018-12-08T04:35:54.671Z,6.90
2018-12-08T04:38:23.277Z,6.80
2018-12-08T04:40:50.803Z,6.80
2018-12-08T04:43:18.332Z,6.80
2018-12-08T04:45:45.857Z,6.60
2018-12-08T04:48:13.354Z,6.50
2018-12-08T04:50:40.885Z,6.50
2018-12-08T04:53:08.385Z,6.40
2018-12-08T04:55:35.925Z,6.50
2018-12-08T04:58:03.587Z,6.50
2018-12-08T05:00:31.096Z,6.50
2018-12-08T05:02:58.637Z,6.50
2018-12-08T05:05:26.950Z,6.60
2018-12-08T05:07:56.058Z,6.50
2018-12-08T05:10:23.571Z,6.50
2018-12-08T05:12:51.071Z,6.60
2018-12-08T05:15:18.599Z,6.50
2018-12-08T05:17:49.065Z,6.40
2018-12-08T05:20:17.248Z,6.40
2018-12-08T05:22:44.759Z,6.30
2018-12-08T05:25:12.267Z,6.30
2018-12-08T05:27:39.803Z,6.20
2018-12-08T05:30:07.379Z,6.10
2018-12-08T05:32:34.933Z,6.10
2018-12-08T05:35:02.468Z,6.10
2018-12-08T05:37:29.976Z,6.00
2018-12-08T05:39:58.233Z,6.00
2018-12-08T05:42:26.182Z,6.00
2018-12-08T05:44:54.921Z,5.90
2018-12-08T05:47:24.761Z,5.90
2018-12-08T05:49:53.569Z,5.90
2018-12-08T05:52:21.820Z,5.90
2018-12-08T05:54:49.346Z,5.80
2018-12-08T05:57:17.697Z,5.80
2018-12-08T05:59:45.551Z,5.80
2018-12-08T06:02:13.127Z,5.70
2018-12-08T06:04:41.331Z,5.70
2018-12-08T06:07:08.878Z,5.60
2018-12-08T06:09:36.384Z,5.60
2018-12-08T06:12:03.983Z,5.60
2018-12-08T06:14:31.523Z,5.60
2018-12-08T06:16:59.782Z,5.60
2018-12-08T06:19:27.679Z,5.60
2018-12-08T06:21:55.393Z,5.70
2018-12-08T06:24:22.954Z,5.70
2018-12-08T06:26:50.878Z,5.70
2018-12-08T06:29:19.648Z,5.70
2018-12-08T06:31:47.649Z,5.70
2018-12-08T06:34:15.159Z,5.80
2018-12-08T06:36:42.691Z,5.80
2018-12-08T06:39:10.211Z,5.80
2018-12-08T06:41:37.752Z,5.80
2018-12-08T06:44:05.273Z,5.90
2018-12-08T06:46:33.474Z,5.90
2018-12-08T06:49:01.840Z,5.90
2018-12-08T06:51:29.360Z,5.90
2018-12-08T06:53:56.855Z,6.00
2018-12-08T06:56:25.641Z,5.90
2018-12-08T06:58:53.147Z,6.00
2018-12-08T07:01:20.765Z,5.90
2018-12-08T07:03:48.264Z,6.00
2018-12-08T07:06:15.793Z,5.90
2018-12-08T07:08:43.337Z,6.00
2018-12-08T07:11:10.851Z,6.00
2018-12-08T07:13:39.291Z,6.00
2018-12-08T07:16:06.785Z,6.10
2018-12-08T07:18:35.229Z,6.10
2018-12-08T07:21:02.746Z,6.10
2018-12-08T07:23:30.268Z,6.20
2018-12-08T07:25:57.814Z,6.20
2018-12-08T07:28:25.370Z,6.20
2018-12-08T07:30:57.907Z,6.20
2018-12-08T07:33:27.877Z,6.20
2018-12-08T07:35:55.372Z,6.20
2018-12-08T07:38:24.256Z,6.20
2018-12-08T07:40:51.845Z,6.30
2018-12-08T07:43:19.551Z,6.30
2018-12-08T07:45:47.098Z,6.30
2018-12-08T07:48:15.045Z,6.30
2018-12-08T07:50:42.566Z,6.30
2018-12-08T07:53:11.427Z,6.30
2018-12-08T07:55:38.937Z,6.40
2018-12-08T07:58:06.466Z,6.40
2018-12-08T08:00:33.984Z,6.40
2018-12-08T08:03:01.489Z,6.40
2018-12-08T08:05:29.036Z,6.50
2018-12-08T08:07:56.549Z,6.60
2018-12-08T08:10:24.958Z,6.50
2018-12-08T08:12:52.493Z,6.60
2018-12-08T08:15:20.024Z,6.60
2018-12-08T08:17:47.574Z,6.60
2018-12-08T08:20:16.260Z,6.60
2018-12-08T08:22:43.751Z,6.60
2018-12-08T08:25:11.275Z,6.60
2018-12-08T08:27:38.780Z,6.60
2018-12-08T08:30:08.746Z,6.60
2018-12-08T08:32:36.284Z,6.70
2018-12-08T08:35:05.052Z,6.70
2018-12-08T08:37:32.623Z,6.70
2018-12-08T08:40:00.177Z,6.70
2018-12-08T08:42:27.721Z,6.70
2018-12-08T08:44:55.772Z,6.70
2018-12-08T08:47:23.811Z,6.80
2018-12-08T08:49:51.967Z,6.80
2018-12-08T08:52:19.511Z,6.80
2018-12-08T08:54:48.323Z,6.80
2018-12-08T08:57:16.394Z,6.80
2018-12-08T08:59:43.913Z,6.90
2018-12-08T09:02:11.456Z,6.90
2018-12-08T09:04:39.345Z,6.90
2018-12-08T09:07:06.872Z,6.90
2018-12-08T09:09:34.435Z,6.90
2018-12-08T09:12:01.961Z,7.00
2018-12-08T09:14:29.498Z,7.00
2018-12-08T09:16:58.383Z,7.10
2018-12-08T09:19:27.608Z,7.10
2018-12-08T09:21:57.564Z,7.10
2018-12-08T09:24:26.051Z,7.10
2018-12-08T09:26:55.098Z,7.10
2018-12-08T09:29:22.626Z,7.00
2018-12-08T09:31:50.191Z,7.10
2018-12-08T09:34:17.695Z,7.10
2018-12-08T09:36:45.976Z,7.10
2018-12-08T09:39:16.041Z,7.10
2018-12-08T09:41:43.557Z,7.10
2018-12-08T09:44:33.726Z,7.20
2018-12-08T09:47:21.287Z,7.10
2018-12-08T09:49:50.079Z,7.10
2018-12-08T09:52:17.577Z,7.10
2018-12-08T09:54:45.080Z,7.20
2018-12-08T09:57:12.632Z,7.20
2018-12-08T09:59:40.208Z,7.20
2018-12-08T10:02:07.788Z,7.30
2018-12-08T10:04:35.337Z,7.30
2018-12-08T10:07:03.338Z,7.30
2018-12-08T10:09:30.885Z,7.30
2018-12-08T10:11:59.275Z,7.30
2018-12-08T10:14:28.451Z,7.40
2018-12-08T10:16:56.039Z,7.40
2018-12-08T10:19:23.554Z,7.40
2018-12-08T10:21:51.982Z,7.40
2018-12-08T10:24:19.934Z,7.40
2018-12-08T10:26:49.591Z,7.40
2018-12-08T10:29:17.196Z,7.40
2018-12-08T10:31:45.362Z,7.40
2018-12-08T10:34:20.166Z,7.40
2018-12-08T10:36:48.897Z,7.40
2018-12-08T10:39:17.742Z,7.40
2018-12-08T10:41:45.372Z,7.50
2018-12-08T10:44:12.935Z,7.50
2018-12-08T10:46:40.823Z,7.50
2018-12-08T10:49:08.350Z,7.50
2018-12-08T10:51:35.878Z,7.50
2018-12-08T10:54:03.476Z,7.50
2018-12-08T10:56:31.011Z,7.50
2018-12-08T10:58:58.523Z,7.50
2018-12-08T11:01:32.379Z,7.60
2018-12-08T11:04:04.924Z,7.50
2018-12-08T11:09:28.983Z,7.40
2018-12-08T11:11:57.220Z,7.40
2018-12-08T11:14:24.738Z,7.40
2018-12-08T11:16:53.057Z,7.40
2018-12-08T11:19:36.015Z,7.40
2018-12-08T11:22:03.586Z,7.30
2018-12-08T11:24:31.159Z,7.30
2018-12-08T11:26:58.734Z,7.30
2018-12-08T11:29:27.106Z,7.30
2018-12-08T11:31:57.410Z,7.20
2018-12-08T11:34:25.776Z,7.20
2018-12-08T11:36:53.609Z,7.20
2018-12-08T11:39:33.564Z,7.10
2018-12-08T11:42:01.349Z,7.10
2018-12-08T11:44:29.046Z,7.00
2018-12-08T11:46:58.302Z,7.00
2018-12-08T11:49:25.845Z,6.90
2018-12-08T11:51:54.551Z,6.90
2018-12-08T11:54:28.820Z,6.90
2018-12-08T11:56:57.119Z,6.90
2018-12-08T11:59:31.158Z,6.80
2018-12-08T12:04:48.773Z,6.90
2018-12-08T12:07:16.413Z,6.90
2018-12-08T12:09:43.908Z,6.90
2018-12-08T12:12:31.874Z,7.00
2018-12-08T12:15:05.434Z,7.10
2018-12-08T12:17:34.068Z,7.10
2018-12-08T12:20:01.601Z,7.20
2018-12-08T12:22:29.110Z,7.20
2018-12-08T12:24:58.001Z,7.30
2018-12-08T12:27:26.553Z,7.30
2018-12-08T12:29:54.117Z,7.40
2018-12-08T12:32:22.412Z,7.40
2018-12-08T12:34:50.148Z,7.30
2018-12-08T12:37:17.680Z,7.30
2018-12-08T12:39:45.836Z,7.30
2018-12-08T12:42:13.349Z,7.30
2018-12-08T12:44:42.041Z,7.30
2018-12-08T12:47:09.564Z,7.30
2018-12-08T12:49:37.122Z,7.20
2018-12-08T12:52:05.301Z,7.30
2018-12-08T12:54:32.806Z,7.20
2018-12-08T12:57:00.345Z,7.10
2018-12-08T12:59:27.864Z,7.10
2018-12-08T13:01:55.583Z,7.10
2018-12-08T13:04:23.845Z,7.00
2018-12-08T13:06:51.348Z,7.00
2018-12-08T13:09:18.886Z,7.00
2018-12-08T13:11:47.682Z,7.00
2018-12-08T13:14:15.210Z,7.00
2018-12-08T13:16:42.718Z,7.00
2018-12-08T13:19:10.234Z,6.90
2018-12-08T13:21:37.975Z,7.00
2018-12-08T13:24:05.483Z,7.00
2018-12-08T13:26:33.032Z,7.10
2018-12-08T13:29:00.603Z,7.00
2018-12-08T13:31:28.198Z,7.00
2018-12-08T13:34:05.082Z,7.00
2018-12-08T13:36:32.575Z,7.00
2018-12-08T13:39:00.107Z,6.90
2018-12-08T13:41:27.635Z,6.90
2018-12-08T13:43:55.215Z,6.90
2018-12-08T13:46:22.733Z,6.90
2018-12-08T13:48:50.320Z,6.90
2018-12-08T13:51:18.234Z,6.80
2018-12-08T13:53:46.611Z,6.90
2018-12-08T13:56:14.223Z,6.90
2018-12-08T13:58:41.762Z,6.90
2018-12-08T14:01:32.976Z,6.90
2018-12-08T14:04:07.700Z,6.80
2018-12-08T14:06:35.590Z,6.90
2018-12-08T14:09:05.453Z,6.90
2018-12-08T14:11:32.981Z,6.90
2018-12-08T14:14:00.964Z,6.90
2018-12-08T14:16:28.575Z,6.90
2018-12-08T14:18:56.802Z,7.00
2018-12-08T14:21:24.871Z,7.00
2018-12-08T14:23:55.047Z,7.00
2018-12-08T14:26:22.571Z,7.00
2018-12-08T14:28:50.362Z,7.00
2018-12-08T14:31:18.241Z,7.00
2018-12-08T14:33:45.783Z,7.00
2018-12-08T14:36:13.536Z,7.00
2018-12-08T14:38:41.926Z,6.90
2018-12-08T14:44:16.584Z,6.90
2018-12-08T14:46:44.123Z,7.00
2018-12-08T14:49:12.357Z,6.90
2018-12-08T14:51:40.864Z,6.90
2018-12-08T14:54:08.405Z,6.90
2018-12-08T14:56:35.932Z,7.00
2018-12-08T14:59:03.848Z,7.00
2018-12-08T15:01:42.094Z,7.00
2018-12-08T15:06:59.168Z,7.00
2018-12-08T15:09:26.677Z,7.00
2018-12-08T15:12:01.505Z,7.10
2018-12-08T15:14:29.541Z,7.10
2018-12-08T15:17:03.629Z,7.00
2018-12-08T15:19:31.163Z,7.10
2018-12-08T15:21:58.689Z,7.10
2018-12-08T15:24:26.216Z,7.10
2018-12-08T15:26:54.837Z,7.20
2018-12-08T15:29:22.412Z,7.10
2018-12-08T15:31:50.896Z,7.10
2018-12-08T15:34:18.585Z,7.10
2018-12-08T15:36:47.461Z,7.10
2018-12-08T15:39:14.984Z,7.10
2018-12-08T15:41:42.625Z,7.10
2018-12-08T15:44:10.263Z,7.10
2018-12-08T15:46:37.779Z,7.10
2018-12-08T15:49:05.792Z,7.00
2018-12-08T15:51:33.345Z,7.00
2018-12-08T15:54:00.893Z,7.10
2018-12-08T15:56:28.497Z,7.00
2018-12-08T15:58:56.098Z,7.00
2018-12-08T16:01:26.439Z,7.10
2018-12-08T16:03:57.278Z,7.00
2018-12-08T16:06:25.172Z,7.00
2018-12-08T16:08:52.711Z,7.10
2018-12-08T16:11:20.228Z,7.10
2018-12-08T16:13:47.817Z,7.10
2018-12-08T16:16:16.298Z,7.10
2018-12-08T16:18:44.956Z,7.20
2018-12-08T16:21:12.510Z,7.20
2018-12-08T16:23:47.677Z,7.20
2018-12-08T16:26:16.101Z,7.20
2018-12-08T16:28:43.651Z,7.20
2018-12-08T16:31:11.829Z,7.20
2018-12-08T16:33:39.362Z,7.20
2018-12-08T16:36:06.901Z,7.20
2018-12-08T16:38:34.550Z,7.30
2018-12-08T16:41:02.069Z,7.30
2018-12-08T16:43:29.651Z,7.30
2018-12-08T16:45:57.961Z,7.30
2018-12-08T16:48:26.187Z,7.30
2018-12-08T16:50:55.039Z,7.40
2018-12-08T16:53:24.778Z,7.40
2018-12-08T16:55:52.315Z,7.40
2018-12-08T16:58:19.845Z,7.40
2018-12-08T17:00:47.406Z,7.40
2018-12-08T17:03:16.479Z,7.40
2018-12-08T17:05:48.995Z,7.50
2018-12-08T17:08:18.393Z,7.50
2018-12-08T17:10:47.212Z,7.50
2018-12-08T17:13:16.144Z,7.60
2018-12-08T17:15:45.463Z,7.60
2018-12-08T17:18:14.580Z,7.60
2018-12-08T17:20:42.182Z,7.60
2018-12-08T17:23:09.677Z,7.60
2018-12-08T17:25:37.246Z,7.70
2018-12-08T17:28:07.002Z,7.70
2018-12-08T17:30:34.616Z,7.70
2018-12-08T17:33:02.857Z,7.70
2018-12-08T17:35:30.372Z,7.70
2018-12-08T17:37:59.352Z,7.70
2018-12-08T17:40:26.968Z,7.70
2018-12-08T17:42:54.634Z,7.70
2018-12-08T17:45:23.467Z,7.80
2018-12-08T17:47:55.177Z,7.70
2018-12-08T17:50:24.173Z,7.70
2018-12-08T17:55:29.767Z,7.70
2018-12-08T17:57:57.884Z,7.70
2018-12-08T18:00:25.412Z,7.70
2018-12-08T18:02:53.236Z,7.70
2018-12-08T18:05:20.775Z,7.70
2018-12-08T18:07:51.099Z,7.70
2018-12-08T18:10:21.945Z,7.60
2018-12-08T18:12:49.886Z,7.60
2018-12-08T18:15:18.201Z,7.60
2018-12-08T18:17:48.632Z,7.60
2018-12-08T18:20:16.237Z,7.50
2018-12-08T18:22:43.895Z,7.50
2018-12-08T18:25:11.990Z,7.50
2018-12-08T18:27:39.534Z,7.60
2018-12-08T18:30:07.243Z,7.50
2018-12-08T18:32:34.780Z,7.40
2018-12-08T18:35:02.312Z,7.40
2018-12-08T18:37:29.843Z,7.30
2018-12-08T18:39:57.389Z,7.30
2018-12-08T18:42:30.646Z,7.30
2018-12-08T18:44:58.168Z,7.30
2018-12-08T18:47:27.292Z,7.30
2018-12-08T18:49:56.298Z,7.30
2018-12-08T18:52:23.863Z,7.40
2018-12-08T18:54:51.375Z,7.40
2018-12-08T18:57:19.488Z,7.40
2018-12-08T18:59:49.054Z,7.40
2018-12-08T19:02:16.942Z,7.40
2018-12-08T19:04:44.619Z,7.40
2018-12-08T19:07:12.711Z,7.40
2018-12-08T19:09:40.470Z,7.40
2018-12-08T19:12:08.089Z,7.40
2018-12-08T19:14:35.632Z,7.40
2018-12-08T19:17:03.212Z,7.40
2018-12-08T19:19:30.747Z,7.40
2018-12-08T19:21:58.490Z,7.30
2018-12-08T19:24:27.413Z,7.30
2018-12-08T19:26:56.224Z,7.40
2018-12-08T19:29:28.351Z,7.40
2018-12-08T19:31:56.333Z,7.40
2018-12-08T19:34:24.059Z,7.40
2018-12-08T19:36:52.169Z,7.40
2018-12-08T19:39:19.717Z,7.40
2018-12-08T19:41:47.224Z,7.50
2018-12-08T19:44:14.811Z,7.50
2018-12-08T19:46:42.335Z,7.50
2018-12-08T19:49:09.847Z,7.50
2018-12-08T19:51:38.110Z,7.50
2018-12-08T19:54:06.351Z,7.50
2018-12-08T19:56:35.138Z,7.60
2018-12-08T19:59:08.289Z,7.60
2018-12-08T20:01:36.515Z,7.60
2018-12-08T20:04:15.417Z,7.60
2018-12-08T20:06:42.971Z,7.60
2018-12-08T20:09:10.471Z,7.60
2018-12-08T20:11:37.996Z,7.60
2018-12-08T20:14:05.557Z,7.60
2018-12-08T20:16:33.360Z,7.60
2018-12-08T20:19:00.883Z,7.60
2018-12-08T20:21:29.350Z,7.70
2018-12-08T20:23:57.512Z,7.70
2018-12-08T20:26:25.125Z,7.70
2018-12-08T20:28:53.416Z,7.70
2018-12-08T20:31:20.945Z,7.80
2018-12-08T20:33:48.721Z,7.70
2018-12-08T20:36:16.687Z,7.70
2018-12-08T20:38:46.146Z,7.70
2018-12-08T20:41:14.677Z,7.70
2018-12-08T20:43:42.267Z,7.70
2018-12-08T20:46:09.778Z,7.70
2018-12-08T20:48:38.286Z,7.70
2018-12-08T20:51:06.199Z,7.70
2018-12-08T20:53:33.737Z,7.70
2018-12-08T20:56:02.286Z,7.60
2018-12-08T20:58:29.783Z,7.60
2018-12-08T21:00:57.915Z,7.60
2018-12-08T21:03:26.197Z,7.60
2018-12-08T21:05:55.087Z,7.60
2018-12-08T21:08:22.610Z,7.60
2018-12-08T21:10:50.316Z,7.70
2018-12-08T21:13:23.734Z,7.70
2018-12-08T21:15:51.321Z,7.70
2018-12-08T21:18:18.914Z,7.80
2018-12-08T21:20:47.296Z,7.80
2018-12-08T21:23:16.096Z,7.80
2018-12-08T21:25:43.694Z,7.80
2018-12-08T21:28:11.240Z,7.80
2018-12-08T21:30:42.614Z,7.90
2018-12-08T21:33:11.237Z,7.80
2018-12-08T21:35:38.761Z,7.90
2018-12-08T21:38:07.243Z,7.90
2018-12-08T21:40:34.753Z,7.90
2018-12-08T21:43:02.332Z,7.90
2018-12-08T21:45:30.567Z,7.80
2018-12-08T21:47:58.102Z,7.80
2018-12-08T21:50:26.781Z,7.80
2018-12-08T21:52:55.545Z,7.80
2018-12-08T21:55:23.718Z,7.80
2018-12-08T21:57:51.242Z,7.80
2018-12-08T22:00:19.276Z,7.80
2018-12-08T22:02:46.922Z,7.80
2018-12-08T22:05:16.204Z,7.80
2018-12-08T22:07:47.563Z,7.80
2018-12-08T22:10:16.406Z,7.70
2018-12-08T22:12:45.041Z,7.70
2018-12-08T22:15:15.927Z,7.80
2018-12-08T22:17:44.082Z,7.80
2018-12-08T22:20:17.677Z,7.70
2018-12-08T22:22:45.203Z,7.80
2018-12-08T22:25:12.772Z,7.80
2018-12-08T22:27:40.585Z,7.70
2018-12-08T22:30:08.265Z,7.80
2018-12-08T22:32:35.775Z,7.70
2018-12-08T22:35:03.666Z,7.70
2018-12-08T22:37:31.169Z,7.70
2018-12-08T22:39:59.385Z,7.70
2018-12-08T22:42:30.092Z,7.70
2018-12-08T22:44:57.680Z,7.70
2018-12-08T22:47:25.202Z,7.70
2018-12-08T22:49:52.766Z,7.70
2018-12-08T22:52:20.326Z,7.70
2018-12-08T22:54:47.827Z,7.60
2018-12-08T22:57:15.360Z,7.60
2018-12-08T22:59:42.909Z,7.60
2018-12-08T23:02:10.412Z,7.60
2018-12-08T23:04:37.915Z,7.60
2018-12-08T23:07:05.451Z,7.70
2018-12-08T23:09:33.971Z,7.60
2018-12-08T23:12:01.502Z,7.70
2018-12-08T23:14:29.023Z,7.70
2018-12-08T23:16:56.526Z,7.70
2018-12-08T23:19:24.277Z,7.70
2018-12-08T23:21:51.781Z,7.70
2018-12-08T23:24:20.537Z,7.70
2018-12-08T23:26:48.111Z,7.70
2018-12-08T23:29:16.100Z,7.70
2018-12-08T23:31:47.940Z,7.70
2018-12-08T23:34:16.721Z,7.70
2018-12-08T23:36:44.996Z,7.70
2018-12-08T23:39:12.509Z,7.70
2018-12-08T23:41:40.010Z,7.70
2018-12-08T23:44:07.535Z,7.70
2018-12-08T23:46:35.628Z,7.70
2018-12-08T23:49:10.954Z,7.70
2018-12-08T23:51:37.181Z,7.70
2018-12-08T23:54:04.736Z,7.70
2018-12-08T23:56:32.702Z,7.70
2018-12-08T23:59:00.870Z,7.70
